sensor_id;sensor_type;location;lat;lon;timestamp;pressure;altitude;pressure_sealevel;temperature;humidity
49979;BME280;35869;50.990;6.962;2024-03-08T00:03:49;101494.09;;;3.92;100.00
49979;BME280;35869;50.990;6.962;2024-03-08T00:08:49;101488.13;;;3.86;100.00
49979;BME280;35869;50.990;6.962;2024-03-08T00:13:49;101473.63;;;3.71;100.00
49979;BME280;35869;50.990;6.962;2024-03-08T00:18:50;101469.34;;;3.65;100.00
49979;BME280;35869;50.990;6.962;2024-03-08T00:23:50;101471.09;;;3.57;100.00
49979;BME280;35869;50.990;6.962;2024-03-08T00:28:50;101466.81;;;3.59;100.00
49979;BME280;35869;50.990;6.962;2024-03-08T00:33:50;101460.78;;;3.62;100.00
49979;BME280;35869;50.990;6.962;2024-03-08T00:38:50;101458.25;;;3.59;100.00
49979;BME280;35869;50.990;6.962;2024-03-08T00:43:51;101459.97;;;3.58;100.00
49979;BME280;35869;50.990;6.962;2024-03-08T00:48:51;101448.84;;;3.53;100.00
49979;BME280;35869;50.990;6.962;2024-03-08T00:53:51;101450.59;;;3.39;100.00
49979;BME280;35869;50.990;6.962;2024-03-08T00:58:51;101441.13;;;3.53;100.00
49979;BME280;35869;50.990;6.962;2024-03-08T01:03:51;101444.59;;;3.37;100.00
49979;BME280;35869;50.990;6.962;2024-03-08T01:08:52;101438.59;;;3.44;100.00
49979;BME280;35869;50.990;6.962;2024-03-08T01:13:52;101436.88;;;3.43;100.00
49979;BME280;35869;50.990;6.962;2024-03-08T01:18:52;101432.63;;;3.36;100.00
49979;BME280;35869;50.990;6.962;2024-03-08T01:23:52;101421.47;;;3.40;100.00
49979;BME280;35869;50.990;6.962;2024-03-08T01:28:53;101414.66;;;3.34;100.00
49979;BME280;35869;50.990;6.962;2024-03-08T01:33:53;101408.69;;;3.25;100.00
49979;BME280;35869;50.990;6.962;2024-03-08T01:38:53;101401.00;;;3.17;100.00
49979;BME280;35869;50.990;6.962;2024-03-08T01:43:53;101395.88;;;3.12;100.00
49979;BME280;35869;50.990;6.962;2024-03-08T01:48:54;101383.03;;;3.17;100.00
49979;BME280;35869;50.990;6.962;2024-03-08T01:53:55;101380.47;;;3.03;100.00
49979;BME280;35869;50.990;6.962;2024-03-08T01:58:57;101376.22;;;2.99;100.00
49979;BME280;35869;50.990;6.962;2024-03-08T02:03:59;101365.06;;;3.06;100.00
49979;BME280;35869;50.990;6.962;2024-03-08T02:08:59;101365.94;;;3.05;100.00
49979;BME280;35869;50.990;6.962;2024-03-08T02:14:00;101361.66;;;3.01;100.00
49979;BME280;35869;50.990;6.962;2024-03-08T02:19:00;101360.81;;;2.91;100.00
49979;BME280;35869;50.990;6.962;2024-03-08T02:24:00;101350.56;;;2.91;100.00
49979;BME280;35869;50.990;6.962;2024-03-08T02:29:02;101351.44;;;2.80;100.00
49979;BME280;35869;50.990;6.962;2024-03-08T02:34:02;101346.31;;;2.77;100.00
49979;BME280;35869;50.990;6.962;2024-03-08T02:39:03;101345.41;;;2.93;100.00
49979;BME280;35869;50.990;6.962;2024-03-08T02:44:03;101336.03;;;2.84;100.00
49979;BME280;35869;50.990;6.962;2024-03-08T02:49:03;101324.09;;;2.71;100.00
49979;BME280;35869;50.990;6.962;2024-03-08T02:54:04;101320.72;;;2.52;100.00
49979;BME280;35869;50.990;6.962;2024-03-08T02:59:04;101319.00;;;2.59;100.00
49979;BME280;35869;50.990;6.962;2024-03-08T03:04:04;101319.84;;;2.53;100.00
49979;BME280;35869;50.990;6.962;2024-03-08T03:09:04;101317.25;;;2.56;100.00
49979;BME280;35869;50.990;6.962;2024-03-08T03:14:05;101313.00;;;2.54;100.00
49979;BME280;35869;50.990;6.962;2024-03-08T03:19:05;101309.59;;;2.49;100.00
49979;BME280;35869;50.990;6.962;2024-03-08T03:24:05;101302.75;;;2.40;100.00
49979;BME280;35869;50.990;6.962;2024-03-08T03:29:06;101301.06;;;2.31;100.00
49979;BME280;35869;50.990;6.962;2024-03-08T03:34:06;101300.19;;;2.43;100.00
49979;BME280;35869;50.990;6.962;2024-03-08T03:39:07;101300.16;;;2.46;100.00
49979;BME280;35869;50.990;6.962;2024-03-08T03:44:08;101289.91;;;2.46;100.00
49979;BME280;35869;50.990;6.962;2024-03-08T03:49:08;101295.91;;;2.45;100.00
49979;BME280;35869;50.990;6.962;2024-03-08T03:54:08;101291.63;;;2.44;100.00
49979;BME280;35869;50.990;6.962;2024-03-08T03:59:08;101296.81;;;2.29;100.00
49979;BME280;35869;50.990;6.962;2024-03-08T04:04:08;101291.66;;;2.32;100.00
49979;BME280;35869;50.990;6.962;2024-03-08T04:09:09;101280.56;;;2.24;100.00
49979;BME280;35869;50.990;6.962;2024-03-08T04:14:09;101280.53;;;2.34;100.00
49979;BME280;35869;50.990;6.962;2024-03-08T04:19:09;101273.72;;;2.30;100.00
49979;BME280;35869;50.990;6.962;2024-03-08T04:24:09;101273.69;;;2.23;100.00
49979;BME280;35869;50.990;6.962;2024-03-08T04:29:10;101277.13;;;2.26;100.00
49979;BME280;35869;50.990;6.962;2024-03-08T04:34:10;101262.63;;;2.18;100.00
49979;BME280;35869;50.990;6.962;2024-03-08T04:39:11;101267.72;;;2.21;100.00
49979;BME280;35869;50.990;6.962;2024-03-08T04:44:11;101260.91;;;2.13;100.00
49979;BME280;35869;50.990;6.962;2024-03-08T04:49:11;101255.75;;;2.17;100.00
49979;BME280;35869;50.990;6.962;2024-03-08T04:54:11;101255.78;;;2.13;100.00
49979;BME280;35869;50.990;6.962;2024-03-08T04:59:12;101251.47;;;2.22;100.00
49979;BME280;35869;50.990;6.962;2024-03-08T05:04:12;101245.53;;;2.09;100.00
49979;BME280;35869;50.990;6.962;2024-03-08T05:09:12;101231.84;;;2.10;100.00
49979;BME280;35869;50.990;6.962;2024-03-08T05:14:13;101234.41;;;2.16;100.00
49979;BME280;35869;50.990;6.962;2024-03-08T05:19:17;101227.56;;;2.09;100.00
49979;BME280;35869;50.990;6.962;2024-03-08T05:24:18;101226.75;;;2.05;100.00
49979;BME280;35869;50.990;6.962;2024-03-08T05:29:19;101220.75;;;2.08;100.00
49979;BME280;35869;50.990;6.962;2024-03-08T05:34:19;101222.44;;;2.10;100.00
49979;BME280;35869;50.990;6.962;2024-03-08T05:39:19;101230.13;;;2.13;100.00
49979;BME280;35869;50.990;6.962;2024-03-08T05:44:19;101215.63;;;2.12;100.00
49979;BME280;35869;50.990;6.962;2024-03-08T05:49:19;101219.88;;;2.13;100.00
49979;BME280;35869;50.990;6.962;2024-03-08T05:54:20;101210.47;;;2.09;100.00
49979;BME280;35869;50.990;6.962;2024-03-08T05:59:20;101208.78;;;2.07;100.00
49979;BME280;35869;50.990;6.962;2024-03-08T06:04:20;101205.34;;;2.05;100.00
49979;BME280;35869;50.990;6.962;2024-03-08T06:09:20;101211.31;;;2.14;100.00
49979;BME280;35869;50.990;6.962;2024-03-08T06:14:21;101204.50;;;2.12;100.00
49979;BME280;35869;50.990;6.962;2024-03-08T06:19:21;101199.41;;;2.06;100.00
49979;BME280;35869;50.990;6.962;2024-03-08T06:24:21;101202.78;;;2.05;100.00
49979;BME280;35869;50.990;6.962;2024-03-08T06:29:21;101195.09;;;2.03;100.00
49979;BME280;35869;50.990;6.962;2024-03-08T06:34:21;101199.38;;;2.04;100.00
49979;BME280;35869;50.990;6.962;2024-03-08T06:39:22;101201.09;;;2.11;100.00
49979;BME280;35869;50.990;6.962;2024-03-08T06:44:22;101200.22;;;2.09;100.00
49979;BME280;35869;50.990;6.962;2024-03-08T06:49:22;101195.97;;;2.11;100.00
49979;BME280;35869;50.990;6.962;2024-03-08T06:54:22;101189.09;;;2.21;100.00
49979;BME280;35869;50.990;6.962;2024-03-08T06:59:22;101189.97;;;2.23;100.00
49979;BME280;35869;50.990;6.962;2024-03-08T07:04:23;101195.06;;;2.25;100.00
49979;BME280;35869;50.990;6.962;2024-03-08T07:09:24;101186.50;;;2.30;100.00
49979;BME280;35869;50.990;6.962;2024-03-08T07:14:24;101181.38;;;2.30;100.00
49979;BME280;35869;50.990;6.962;2024-03-08T07:19:24;101183.06;;;2.40;100.00
49979;BME280;35869;50.990;6.962;2024-03-08T07:24:24;101183.03;;;2.48;100.00
49979;BME280;35869;50.990;6.962;2024-03-08T07:29:24;101174.44;;;2.60;100.00
49979;BME280;35869;50.990;6.962;2024-03-08T07:34:25;101165.81;;;2.68;100.00
49979;BME280;35869;50.990;6.962;2024-03-08T07:39:25;101155.44;;;2.91;100.00
49979;BME280;35869;50.990;6.962;2024-03-08T07:44:25;101150.28;;;2.96;100.00
49979;BME280;35869;50.990;6.962;2024-03-08T07:49:25;101151.00;;;3.16;100.00
49979;BME280;35869;50.990;6.962;2024-03-08T07:54:25;101145.00;;;3.19;100.00
49979;BME280;35869;50.990;6.962;2024-03-08T07:59:26;101135.50;;;3.29;100.00
49979;BME280;35869;50.990;6.962;2024-03-08T08:04:26;101129.41;;;3.42;100.00
49979;BME280;35869;50.990;6.962;2024-03-08T08:09:26;101122.47;;;3.50;100.00
49979;BME280;35869;50.990;6.962;2024-03-08T08:14:26;101119.03;;;3.53;100.00
49979;BME280;35869;50.990;6.962;2024-03-08T08:19:27;101106.91;;;3.67;100.00
49979;BME280;35869;50.990;6.962;2024-03-08T08:24:27;101095.41;;;4.01;100.00
49979;BME280;35869;50.990;6.962;2024-03-08T08:29:27;101093.66;;;4.04;100.00
49979;BME280;35869;50.990;6.962;2024-03-08T08:34:27;101073.78;;;4.18;100.00
49979;BME280;35869;50.990;6.962;2024-03-08T08:39:27;101064.03;;;4.41;100.00
49979;BME280;35869;50.990;6.962;2024-03-08T08:44:28;101060.31;;;4.64;100.00
49979;BME280;35869;50.990;6.962;2024-03-08T08:49:28;101047.31;;;4.71;100.00
49979;BME280;35869;50.990;6.962;2024-03-08T08:54:28;101038.50;;;4.85;100.00
49979;BME280;35869;50.990;6.962;2024-03-08T08:59:28;101040.91;;;4.98;100.00
49979;BME280;35869;50.990;6.962;2024-03-08T09:04:29;101042.94;;;5.29;100.00
49979;BME280;35869;50.990;6.962;2024-03-08T09:09:29;101039.34;;;5.38;100.00
49979;BME280;35869;50.990;6.962;2024-03-08T09:14:29;101028.09;;;5.43;100.00
49979;BME280;35869;50.990;6.962;2024-03-08T09:19:29;101027.66;;;5.66;100.00
49979;BME280;35869;50.990;6.962;2024-03-08T09:24:30;101027.66;;;5.66;100.00
49979;BME280;35869;50.990;6.962;2024-03-08T09:29:30;101018.72;;;5.84;100.00
49979;BME280;35869;50.990;6.962;2024-03-08T09:34:30;101010.91;;;5.87;100.00
49979;BME280;35869;50.990;6.962;2024-03-08T09:39:31;101005.56;;;5.98;100.00
49979;BME280;35869;50.990;6.962;2024-03-08T09:44:31;100993.16;;;6.15;100.00
49979;BME280;35869;50.990;6.962;2024-03-08T09:49:31;100997.22;;;6.25;100.00
49979;BME280;35869;50.990;6.962;2024-03-08T09:54:32;100981.13;;;6.53;100.00
49979;BME280;35869;50.990;6.962;2024-03-08T09:59:32;100974.66;;;6.71;100.00
49979;BME280;35869;50.990;6.962;2024-03-08T10:04:32;100959.38;;;6.63;100.00
49979;BME280;35869;50.990;6.962;2024-03-08T10:09:32;100949.47;;;6.80;100.00
49979;BME280;35869;50.990;6.962;2024-03-08T10:14:33;100953.22;;;7.01;97.61
49979;BME280;35869;50.990;6.962;2024-03-08T10:19:33;100940.19;;;7.06;94.03
49979;BME280;35869;50.990;6.962;2024-03-08T10:24:33;100936.84;;;7.35;98.62
49979;BME280;35869;50.990;6.962;2024-03-08T10:29:33;100933.28;;;7.39;97.04
49979;BME280;35869;50.990;6.962;2024-03-08T10:34:34;100917.09;;;7.62;94.08
49979;BME280;35869;50.990;6.962;2024-03-08T10:39:35;100905.94;;;7.60;99.72
49979;BME280;35869;50.990;6.962;2024-03-08T10:44:49;100892.28;;;7.84;90.40
49979;BME280;35869;50.990;6.962;2024-03-08T10:55:10;100892.66;;;8.28;89.70
49979;BME280;35869;50.990;6.962;2024-03-08T11:00:12;100878.28;;;8.46;88.38
49979;BME280;35869;50.990;6.962;2024-03-08T11:05:51;100870.84;;;8.62;89.90
49979;BME280;35869;50.990;6.962;2024-03-08T11:10:52;100858.84;;;8.84;85.90
49979;BME280;35869;50.990;6.962;2024-03-08T11:15:53;100856.03;;;8.90;81.26
49979;BME280;35869;50.990;6.962;2024-03-08T11:20:54;100847.59;;;9.32;82.79
49979;BME280;35869;50.990;6.962;2024-03-08T11:25:54;100836.34;;;9.33;86.18
49979;BME280;35869;50.990;6.962;2024-03-08T11:41:07;100821.59;;;9.79;83.08
49979;BME280;35869;50.990;6.962;2024-03-08T11:46:08;100815.28;;;9.86;74.96
49979;BME280;35869;50.990;6.962;2024-03-08T11:51:11;100802.66;;;10.19;73.86
49979;BME280;35869;50.990;6.962;2024-03-08T11:56:13;100799.41;;;10.14;82.33
49979;BME280;35869;50.990;6.962;2024-03-08T12:01:13;100790.91;;;10.53;70.73
49979;BME280;35869;50.990;6.962;2024-03-08T12:06:13;100773.63;;;10.52;77.96
49979;BME280;35869;50.990;6.962;2024-03-08T12:11:13;100773.94;;;10.64;82.31
49979;BME280;35869;50.990;6.962;2024-03-08T12:16:14;100768.53;;;10.69;81.19
49979;BME280;35869;50.990;6.962;2024-03-08T12:21:14;100756.56;;;10.85;75.48
49979;BME280;35869;50.990;6.962;2024-03-08T12:26:16;100759.28;;;10.82;83.90
49979;BME280;35869;50.990;6.962;2024-03-08T12:31:17;100743.63;;;11.03;80.55
49979;BME280;35869;50.990;6.962;2024-03-08T12:36:18;100731.88;;;11.49;69.34
49979;BME280;35869;50.990;6.962;2024-03-08T12:41:19;100724.47;;;11.41;69.44
49979;BME280;35869;50.990;6.962;2024-03-08T12:46:20;100718.78;;;11.33;77.95
49979;BME280;35869;50.990;6.962;2024-03-08T12:51:21;100712.22;;;11.43;70.84
49979;BME280;35869;50.990;6.962;2024-03-08T12:56:34;100708.94;;;11.57;89.72
49979;BME280;35869;50.990;6.962;2024-03-08T13:01:35;100698.91;;;11.86;64.96
49979;BME280;35869;50.990;6.962;2024-03-08T13:06:35;100694.44;;;11.88;65.90
49979;BME280;35869;50.990;6.962;2024-03-08T13:11:35;100679.03;;;12.00;63.40
49979;BME280;35869;50.990;6.962;2024-03-08T13:16:35;100683.00;;;12.08;68.05
49979;BME280;35869;50.990;6.962;2024-03-08T13:21:36;100676.09;;;12.24;58.62
49979;BME280;35869;50.990;6.962;2024-03-08T13:26:36;100672.06;;;12.01;66.90
49979;BME280;35869;50.990;6.962;2024-03-08T13:31:36;100660.22;;;12.28;58.42
49979;BME280;35869;50.990;6.962;2024-03-08T13:36:36;100646.38;;;12.28;56.56
49979;BME280;35869;50.990;6.962;2024-03-08T13:41:36;100639.16;;;12.33;57.86
49979;BME280;35869;50.990;6.962;2024-03-08T13:46:37;100631.66;;;12.43;59.21
49979;BME280;35869;50.990;6.962;2024-03-08T13:51:37;100628.31;;;12.41;64.66
49979;BME280;35869;50.990;6.962;2024-03-08T13:56:37;100619.22;;;12.48;63.29
49979;BME280;35869;50.990;6.962;2024-03-08T14:01:37;100602.44;;;12.69;59.08
49979;BME280;35869;50.990;6.962;2024-03-08T14:06:37;100597.13;;;12.71;61.35
49979;BME280;35869;50.990;6.962;2024-03-08T14:11:38;100574.44;;;12.73;58.56
49979;BME280;35869;50.990;6.962;2024-03-08T14:16:39;100570.66;;;12.78;58.77
49979;BME280;35869;50.990;6.962;2024-03-08T14:21:39;100564.91;;;12.72;57.68
49979;BME280;35869;50.990;6.962;2024-03-08T14:26:40;100561.09;;;12.93;58.11
49979;BME280;35869;50.990;6.962;2024-03-08T14:31:40;100544.22;;;12.85;60.31
49979;BME280;35869;50.990;6.962;2024-03-08T14:36:40;100539.25;;;12.64;66.65
49979;BME280;35869;50.990;6.962;2024-03-08T14:41:40;100527.91;;;12.65;57.78
49979;BME280;35869;50.990;6.962;2024-03-08T14:46:41;100532.03;;;12.69;57.31
49979;BME280;35869;50.990;6.962;2024-03-08T14:51:41;100518.75;;;12.58;57.23
49979;BME280;35869;50.990;6.962;2024-03-08T14:56:41;100512.69;;;12.73;57.48
49979;BME280;35869;50.990;6.962;2024-03-08T15:01:42;100506.28;;;12.79;57.71
49979;BME280;35869;50.990;6.962;2024-03-08T15:06:42;100501.97;;;12.78;58.67
49979;BME280;35869;50.990;6.962;2024-03-08T15:11:46;100487.69;;;12.69;62.83
49979;BME280;35869;50.990;6.962;2024-03-08T15:16:46;100489.94;;;12.75;67.92
49979;BME280;35869;50.990;6.962;2024-03-08T15:21:47;100472.06;;;12.53;57.65
49979;BME280;35869;50.990;6.962;2024-03-08T15:26:48;100476.78;;;12.47;61.96
49979;BME280;35869;50.990;6.962;2024-03-08T15:31:48;100471.06;;;12.56;62.42
49979;BME280;35869;50.990;6.962;2024-03-08T15:36:48;100460.16;;;12.49;61.21
49979;BME280;35869;50.990;6.962;2024-03-08T15:41:48;100456.22;;;12.26;57.64
49979;BME280;35869;50.990;6.962;2024-03-08T15:46:48;100453.72;;;12.09;57.70
49979;BME280;35869;50.990;6.962;2024-03-08T15:51:49;100451.50;;;12.17;57.73
49979;BME280;35869;50.990;6.962;2024-03-08T15:56:49;100452.78;;;12.10;57.83
49979;BME280;35869;50.990;6.962;2024-03-08T16:01:49;100455.38;;;11.94;59.12
49979;BME280;35869;50.990;6.962;2024-03-08T16:06:52;100454.25;;;11.83;57.12
49979;BME280;35869;50.990;6.962;2024-03-08T16:11:52;100450.72;;;11.84;60.36
49979;BME280;35869;50.990;6.962;2024-03-08T16:16:53;100448.38;;;11.79;70.39
49979;BME280;35869;50.990;6.962;2024-03-08T16:21:53;100450.59;;;11.69;72.98
49979;BME280;35869;50.990;6.962;2024-03-08T16:26:53;100444.91;;;11.63;72.26
49979;BME280;35869;50.990;6.962;2024-03-08T16:31:53;100447.63;;;11.44;68.17
49979;BME280;35869;50.990;6.962;2024-03-08T16:36:54;100438.75;;;11.31;71.23
49979;BME280;35869;50.990;6.962;2024-03-08T16:41:54;100446.66;;;11.29;64.10
49979;BME280;35869;50.990;6.962;2024-03-08T16:46:59;100430.09;;;11.14;72.38
49979;BME280;35869;50.990;6.962;2024-03-08T16:51:59;100434.06;;;11.04;69.53
49979;BME280;35869;50.990;6.962;2024-03-08T16:56:59;100428.25;;;10.82;68.40
49979;BME280;35869;50.990;6.962;2024-03-08T17:02:00;100429.47;;;10.57;64.30
49979;BME280;35869;50.990;6.962;2024-03-08T17:07:00;100432.38;;;10.51;76.13
49979;BME280;35869;50.990;6.962;2024-03-08T17:12:03;100423.03;;;10.47;79.73
49979;BME280;35869;50.990;6.962;2024-03-08T17:17:03;100431.88;;;10.43;84.44
49979;BME280;35869;50.990;6.962;2024-03-08T17:22:04;100437.00;;;10.27;77.49
49979;BME280;35869;50.990;6.962;2024-03-08T17:27:04;100439.97;;;10.18;76.58
49979;BME280;35869;50.990;6.962;2024-03-08T17:32:05;100437.00;;;10.08;72.82
49979;BME280;35869;50.990;6.962;2024-03-08T17:37:05;100444.16;;;10.03;79.52
49979;BME280;35869;50.990;6.962;2024-03-08T17:42:05;100435.38;;;9.87;83.59
49979;BME280;35869;50.990;6.962;2024-03-08T17:47:06;100433.41;;;9.73;77.63
49979;BME280;35869;50.990;6.962;2024-03-08T17:52:06;100420.22;;;9.59;81.98
49979;BME280;35869;50.990;6.962;2024-03-08T17:57:06;100426.59;;;9.52;78.38
49979;BME280;35869;50.990;6.962;2024-03-08T18:02:07;100435.75;;;9.40;93.02
49979;BME280;35869;50.990;6.962;2024-03-08T18:07:07;100443.81;;;9.34;89.44
49979;BME280;35869;50.990;6.962;2024-03-08T18:12:07;100428.63;;;9.25;94.58
49979;BME280;35869;50.990;6.962;2024-03-08T18:17:07;100430.00;;;9.13;95.02
49979;BME280;35869;50.990;6.962;2024-03-08T18:22:07;100415.69;;;9.04;94.62
49979;BME280;35869;50.990;6.962;2024-03-08T18:27:08;100419.56;;;8.94;90.74
49979;BME280;35869;50.990;6.962;2024-03-08T18:32:08;100419.25;;;8.81;97.08
49979;BME280;35869;50.990;6.962;2024-03-08T18:37:08;100408.56;;;8.69;96.53
49979;BME280;35869;50.990;6.962;2024-03-08T18:42:08;100411.19;;;8.67;100.00
49979;BME280;35869;50.990;6.962;2024-03-08T18:47:08;100407.97;;;8.62;100.00
49979;BME280;35869;50.990;6.962;2024-03-08T18:52:09;100403.94;;;8.55;97.48
49979;BME280;35869;50.990;6.962;2024-03-08T18:57:09;100401.97;;;8.40;100.00
49979;BME280;35869;50.990;6.962;2024-03-08T19:02:09;100391.03;;;8.32;100.00
49979;BME280;35869;50.990;6.962;2024-03-08T19:07:09;100382.75;;;8.23;100.00
49979;BME280;35869;50.990;6.962;2024-03-08T19:12:09;100379.56;;;8.17;100.00
49979;BME280;35869;50.990;6.962;2024-03-08T19:17:10;100380.72;;;8.10;100.00
49979;BME280;35869;50.990;6.962;2024-03-08T19:22:10;100371.50;;;8.02;100.00
49979;BME280;35869;50.990;6.962;2024-03-08T19:27:10;100370.03;;;7.95;100.00
49979;BME280;35869;50.990;6.962;2024-03-08T19:32:10;100367.78;;;7.88;100.00
49979;BME280;35869;50.990;6.962;2024-03-08T19:37:10;100364.59;;;7.81;100.00
49979;BME280;35869;50.990;6.962;2024-03-08T19:42:11;100358.06;;;7.71;100.00
49979;BME280;35869;50.990;6.962;2024-03-08T19:47:11;100355.81;;;7.62;100.00
49979;BME280;35869;50.990;6.962;2024-03-08T19:52:11;100351.78;;;7.55;100.00
49979;BME280;35869;50.990;6.962;2024-03-08T19:57:11;100351.31;;;7.45;100.00
49979;BME280;35869;50.990;6.962;2024-03-08T20:02:12;100343.94;;;7.34;100.00
49979;BME280;35869;50.990;6.962;2024-03-08T20:07:12;100339.31;;;7.19;100.00
49979;BME280;35869;50.990;6.962;2024-03-08T20:12:12;100329.13;;;7.14;100.00
49979;BME280;35869;50.990;6.962;2024-03-08T20:17:12;100315.59;;;7.08;100.00
49979;BME280;35869;50.990;6.962;2024-03-08T20:22:12;100312.41;;;7.01;100.00
49979;BME280;35869;50.990;6.962;2024-03-08T20:27:13;100304.50;;;7.06;100.00
49979;BME280;35869;50.990;6.962;2024-03-08T20:32:13;100309.75;;;7.03;96.43
49979;BME280;35869;50.990;6.962;2024-03-08T20:37:13;100298.75;;;6.98;98.75
49979;BME280;35869;50.990;6.962;2024-03-08T20:42:13;100298.34;;;6.85;100.00
49979;BME280;35869;50.990;6.962;2024-03-08T20:47:13;100292.47;;;6.81;100.00
49979;BME280;35869;50.990;6.962;2024-03-08T20:52:14;100290.78;;;6.80;100.00
49979;BME280;35869;50.990;6.962;2024-03-08T20:57:14;100289.25;;;6.75;100.00
49979;BME280;35869;50.990;6.962;2024-03-08T21:02:14;100286.84;;;6.70;100.00
49979;BME280;35869;50.990;6.962;2024-03-08T21:07:14;100295.56;;;6.66;100.00
49979;BME280;35869;50.990;6.962;2024-03-08T21:12:14;100299.34;;;6.57;100.00
49979;BME280;35869;50.990;6.962;2024-03-08T21:17:15;100301.94;;;6.56;100.00
49979;BME280;35869;50.990;6.962;2024-03-08T21:22:15;100308.00;;;6.55;100.00
49979;BME280;35869;50.990;6.962;2024-03-08T21:27:15;100308.97;;;6.52;100.00
49979;BME280;35869;50.990;6.962;2024-03-08T21:32:15;100309.22;;;6.45;100.00
49979;BME280;35869;50.990;6.962;2024-03-08T21:37:15;100301.00;;;6.33;100.00
49979;BME280;35869;50.990;6.962;2024-03-08T21:42:16;100313.03;;;6.33;100.00
49979;BME280;35869;50.990;6.962;2024-03-08T21:47:16;100311.56;;;6.26;100.00
49979;BME280;35869;50.990;6.962;2024-03-08T21:52:16;100311.81;;;6.18;100.00
49979;BME280;35869;50.990;6.962;2024-03-08T21:57:17;100306.81;;;6.13;100.00
49979;BME280;35869;50.990;6.962;2024-03-08T22:02:17;100305.28;;;6.08;100.00
49979;BME280;35869;50.990;6.962;2024-03-08T22:07:17;100300.13;;;6.08;100.00
49979;BME280;35869;50.990;6.962;2024-03-08T22:12:17;100300.31;;;6.02;100.00
49979;BME280;35869;50.990;6.962;2024-03-08T22:17:18;100304.56;;;6.03;100.00
49979;BME280;35869;50.990;6.962;2024-03-08T22:22:18;100302.09;;;6.00;100.00
49979;BME280;35869;50.990;6.962;2024-03-08T22:27:24;100298.91;;;5.92;100.00
49979;BME280;35869;50.990;6.962;2024-03-08T22:32:24;100293.63;;;5.96;100.00
49979;BME280;35869;50.990;6.962;2024-03-08T22:37:25;100292.09;;;5.89;100.00
49979;BME280;35869;50.990;6.962;2024-03-08T22:42:25;100291.44;;;5.82;100.00
49979;BME280;35869;50.990;6.962;2024-03-08T22:47:25;100280.56;;;5.73;100.00
49979;BME280;35869;50.990;6.962;2024-03-08T22:52:25;100278.84;;;5.73;100.00
49979;BME280;35869;50.990;6.962;2024-03-08T22:57:25;100278.88;;;5.72;100.00
49979;BME280;35869;50.990;6.962;2024-03-08T23:02:26;100273.09;;;5.65;100.00
49979;BME280;35869;50.990;6.962;2024-03-08T23:07:26;100268.00;;;5.62;100.00
49979;BME280;35869;50.990;6.962;2024-03-08T23:12:26;100266.44;;;5.58;100.00
49979;BME280;35869;50.990;6.962;2024-03-08T23:17:26;100259.69;;;5.54;100.00
49979;BME280;35869;50.990;6.962;2024-03-08T23:22:26;100253.88;;;5.47;100.00
49979;BME280;35869;50.990;6.962;2024-03-08T23:27:28;100248.91;;;5.41;100.00
49979;BME280;35869;50.990;6.962;2024-03-08T23:32:28;100254.19;;;5.37;100.00
49979;BME280;35869;50.990;6.962;2024-03-08T23:37:28;100260.06;;;5.42;100.00
49979;BME280;35869;50.990;6.962;2024-03-08T23:42:28;100253.63;;;5.27;100.00
49979;BME280;35869;50.990;6.962;2024-03-08T23:47:28;100257.91;;;5.28;100.00
49979;BME280;35869;50.990;6.962;2024-03-08T23:52:28;100265.97;;;5.17;100.00
49979;BME280;35869;50.990;6.962;2024-03-08T23:57:29;100266.84;;;5.16;100.00
